sensor_id;sensor_type;location;lat;lon;timestamp;P1;durP1;ratioP1;P2;durP2;ratioP2
15677;SDS011;7939;50.814;6.368;2023-04-03T00:00:28;4.30;;;3.10;;
15677;SDS011;7939;50.814;6.368;2023-04-03T00:02:55;5.28;;;3.22;;
15677;SDS011;7939;50.814;6.368;2023-04-03T00:05:21;3.28;;;2.97;;
15677;SDS011;7939;50.814;6.368;2023-04-03T00:07:48;4.60;;;2.80;;
15677;SDS011;7939;50.814;6.368;2023-04-03T00:10:17;2.55;;;2.35;;
15677;SDS011;7939;50.814;6.368;2023-04-03T00:12:44;4.28;;;2.50;;
15677;SDS011;7939;50.814;6.368;2023-04-03T00:15:10;2.50;;;2.25;;
15677;SDS011;7939;50.814;6.368;2023-04-03T00:17:37;2.63;;;2.40;;
15677;SDS011;7939;50.814;6.368;2023-04-03T00:20:04;5.20;;;2.92;;
15677;SDS011;7939;50.814;6.368;2023-04-03T00:22:31;2.65;;;2.25;;
15677;SDS011;7939;50.814;6.368;2023-04-03T00:24:58;2.95;;;2.65;;
15677;SDS011;7939;50.814;6.368;2023-04-03T00:27:26;3.03;;;2.03;;
15677;SDS011;7939;50.814;6.368;2023-04-03T00:29:53;2.70;;;2.33;;
15677;SDS011;7939;50.814;6.368;2023-04-03T00:32:19;2.88;;;2.10;;
15677;SDS011;7939;50.814;6.368;2023-04-03T00:34:46;3.38;;;2.20;;
15677;SDS011;7939;50.814;6.368;2023-04-03T00:37:13;3.00;;;2.20;;
15677;SDS011;7939;50.814;6.368;2023-04-03T00:39:40;2.28;;;2.08;;
15677;SDS011;7939;50.814;6.368;2023-04-03T00:42:06;1.90;;;1.75;;
15677;SDS011;7939;50.814;6.368;2023-04-03T00:47:38;2.28;;;2.08;;
15677;SDS011;7939;50.814;6.368;2023-04-03T00:50:07;2.35;;;2.15;;
15677;SDS011;7939;50.814;6.368;2023-04-03T00:52:34;3.55;;;1.92;;
15677;SDS011;7939;50.814;6.368;2023-04-03T00:55:04;3.95;;;2.05;;
15677;SDS011;7939;50.814;6.368;2023-04-03T00:57:34;2.55;;;2.35;;
15677;SDS011;7939;50.814;6.368;2023-04-03T01:00:02;2.25;;;1.95;;
15677;SDS011;7939;50.814;6.368;2023-04-03T01:02:34;1.85;;;1.73;;
15677;SDS011;7939;50.814;6.368;2023-04-03T01:05:03;2.85;;;2.03;;
15677;SDS011;7939;50.814;6.368;2023-04-03T01:07:30;2.63;;;2.40;;
15677;SDS011;7939;50.814;6.368;2023-04-03T01:09:59;2.30;;;2.10;;
15677;SDS011;7939;50.814;6.368;2023-04-03T01:12:28;2.20;;;2.03;;
15677;SDS011;7939;50.814;6.368;2023-04-03T01:14:59;2.30;;;2.10;;
15677;SDS011;7939;50.814;6.368;2023-04-03T01:17:28;3.47;;;2.53;;
15677;SDS011;7939;50.814;6.368;2023-04-03T01:20:02;2.03;;;1.90;;
15677;SDS011;7939;50.814;6.368;2023-04-03T01:22:58;2.05;;;1.85;;
15677;SDS011;7939;50.814;6.368;2023-04-03T01:25:32;2.28;;;2.00;;
15677;SDS011;7939;50.814;6.368;2023-04-03T01:28:01;4.10;;;2.83;;
15677;SDS011;7939;50.814;6.368;2023-04-03T01:30:30;2.55;;;2.08;;
15677;SDS011;7939;50.814;6.368;2023-04-03T01:33:00;3.05;;;2.45;;
15677;SDS011;7939;50.814;6.368;2023-04-03T01:35:27;4.35;;;2.72;;
15677;SDS011;7939;50.814;6.368;2023-04-03T01:37:53;4.43;;;3.10;;
15677;SDS011;7939;50.814;6.368;2023-04-03T01:40:20;3.97;;;3.33;;
15677;SDS011;7939;50.814;6.368;2023-04-03T01:42:46;3.40;;;3.10;;
15677;SDS011;7939;50.814;6.368;2023-04-03T01:45:13;4.82;;;3.45;;
15677;SDS011;7939;50.814;6.368;2023-04-03T01:47:39;5.35;;;2.83;;
15677;SDS011;7939;50.814;6.368;2023-04-03T01:50:08;4.00;;;2.88;;
15677;SDS011;7939;50.814;6.368;2023-04-03T01:52:35;3.25;;;2.80;;
15677;SDS011;7939;50.814;6.368;2023-04-03T01:55:02;3.28;;;2.97;;
15677;SDS011;7939;50.814;6.368;2023-04-03T01:57:29;2.85;;;2.55;;
15677;SDS011;7939;50.814;6.368;2023-04-03T01:59:55;4.38;;;2.80;;
15677;SDS011;7939;50.814;6.368;2023-04-03T02:02:22;6.03;;;3.10;;
15677;SDS011;7939;50.814;6.368;2023-04-03T02:04:49;3.17;;;2.78;;
15677;SDS011;7939;50.814;6.368;2023-04-03T02:07:16;5.60;;;2.72;;
15677;SDS011;7939;50.814;6.368;2023-04-03T02:09:43;3.92;;;3.13;;
15677;SDS011;7939;50.814;6.368;2023-04-03T02:12:10;3.72;;;3.17;;
15677;SDS011;7939;50.814;6.368;2023-04-03T02:14:36;3.90;;;3.13;;
15677;SDS011;7939;50.814;6.368;2023-04-03T02:17:03;3.25;;;2.95;;
15677;SDS011;7939;50.814;6.368;2023-04-03T02:19:33;3.17;;;2.63;;
15677;SDS011;7939;50.814;6.368;2023-04-03T02:22:00;3.60;;;2.35;;
15677;SDS011;7939;50.814;6.368;2023-04-03T02:24:28;4.03;;;2.75;;
15677;SDS011;7939;50.814;6.368;2023-04-03T02:26:55;4.97;;;2.40;;
15677;SDS011;7939;50.814;6.368;2023-04-03T02:29:21;2.80;;;2.33;;
15677;SDS011;7939;50.814;6.368;2023-04-03T02:31:48;4.78;;;3.30;;
15677;SDS011;7939;50.814;6.368;2023-04-03T02:34:15;3.28;;;2.22;;
15677;SDS011;7939;50.814;6.368;2023-04-03T02:36:42;4.00;;;2.40;;
15677;SDS011;7939;50.814;6.368;2023-04-03T02:39:09;3.55;;;2.45;;
15677;SDS011;7939;50.814;6.368;2023-04-03T02:41:37;2.63;;;2.42;;
15677;SDS011;7939;50.814;6.368;2023-04-03T02:44:05;3.35;;;2.47;;
15677;SDS011;7939;50.814;6.368;2023-04-03T02:46:32;4.85;;;2.50;;
15677;SDS011;7939;50.814;6.368;2023-04-03T02:48:59;2.90;;;2.55;;
15677;SDS011;7939;50.814;6.368;2023-04-03T02:51:25;2.65;;;2.45;;
15677;SDS011;7939;50.814;6.368;2023-04-03T02:53:52;5.57;;;3.05;;
15677;SDS011;7939;50.814;6.368;2023-04-03T02:56:19;6.88;;;3.35;;
15677;SDS011;7939;50.814;6.368;2023-04-03T02:58:47;3.70;;;2.47;;
15677;SDS011;7939;50.814;6.368;2023-04-03T03:01:14;2.83;;;2.45;;
15677;SDS011;7939;50.814;6.368;2023-04-03T03:03:41;2.85;;;2.40;;
15677;SDS011;7939;50.814;6.368;2023-04-03T03:06:08;2.47;;;2.25;;
15677;SDS011;7939;50.814;6.368;2023-04-03T03:08:36;4.25;;;2.58;;
15677;SDS011;7939;50.814;6.368;2023-04-03T03:11:03;4.10;;;2.60;;
15677;SDS011;7939;50.814;6.368;2023-04-03T03:13:31;3.60;;;3.30;;
15677;SDS011;7939;50.814;6.368;2023-04-03T03:15:59;4.70;;;3.20;;
15677;SDS011;7939;50.814;6.368;2023-04-03T03:18:26;5.43;;;3.17;;
15677;SDS011;7939;50.814;6.368;2023-04-03T03:20:53;3.35;;;2.75;;
15677;SDS011;7939;50.814;6.368;2023-04-03T03:23:20;3.20;;;2.40;;
15677;SDS011;7939;50.814;6.368;2023-04-03T03:25:48;4.50;;;2.60;;
15677;SDS011;7939;50.814;6.368;2023-04-03T03:28:15;5.65;;;2.45;;
15677;SDS011;7939;50.814;6.368;2023-04-03T03:30:42;3.33;;;2.55;;
15677;SDS011;7939;50.814;6.368;2023-04-03T03:33:10;3.17;;;2.88;;
15677;SDS011;7939;50.814;6.368;2023-04-03T03:35:36;4.28;;;2.72;;
15677;SDS011;7939;50.814;6.368;2023-04-03T03:38:03;3.88;;;3.50;;
15677;SDS011;7939;50.814;6.368;2023-04-03T03:40:30;4.57;;;3.08;;
15677;SDS011;7939;50.814;6.368;2023-04-03T03:42:57;3.90;;;3.28;;
15677;SDS011;7939;50.814;6.368;2023-04-03T03:45:23;3.03;;;2.72;;
15677;SDS011;7939;50.814;6.368;2023-04-03T03:47:50;3.53;;;2.92;;
15677;SDS011;7939;50.814;6.368;2023-04-03T03:50:18;3.17;;;2.85;;
15677;SDS011;7939;50.814;6.368;2023-04-03T03:52:45;5.45;;;3.33;;
15677;SDS011;7939;50.814;6.368;2023-04-03T03:55:12;4.65;;;2.95;;
15677;SDS011;7939;50.814;6.368;2023-04-03T03:57:38;3.42;;;3.00;;
15677;SDS011;7939;50.814;6.368;2023-04-03T04:00:06;2.70;;;2.50;;
15677;SDS011;7939;50.814;6.368;2023-04-03T04:02:33;2.95;;;2.72;;
15677;SDS011;7939;50.814;6.368;2023-04-03T04:05:00;3.13;;;2.90;;
15677;SDS011;7939;50.814;6.368;2023-04-03T04:07:28;6.70;;;3.67;;
15677;SDS011;7939;50.814;6.368;2023-04-03T04:09:54;3.20;;;2.90;;
15677;SDS011;7939;50.814;6.368;2023-04-03T04:12:21;3.60;;;3.30;;
15677;SDS011;7939;50.814;6.368;2023-04-03T04:14:48;4.00;;;3.00;;
15677;SDS011;7939;50.814;6.368;2023-04-03T04:17:14;5.03;;;2.63;;
15677;SDS011;7939;50.814;6.368;2023-04-03T04:19:41;4.07;;;3.17;;
15677;SDS011;7939;50.814;6.368;2023-04-03T04:22:07;8.77;;;4.70;;
15677;SDS011;7939;50.814;6.368;2023-04-03T04:24:35;6.60;;;3.72;;
15677;SDS011;7939;50.814;6.368;2023-04-03T04:27:02;5.70;;;3.72;;
15677;SDS011;7939;50.814;6.368;2023-04-03T04:29:29;4.13;;;3.53;;
15677;SDS011;7939;50.814;6.368;2023-04-03T04:32:00;5.22;;;3.53;;
15677;SDS011;7939;50.814;6.368;2023-04-03T04:34:26;5.53;;;3.40;;
15677;SDS011;7939;50.814;6.368;2023-04-03T04:36:53;4.75;;;3.42;;
15677;SDS011;7939;50.814;6.368;2023-04-03T04:39:19;5.88;;;3.40;;
15677;SDS011;7939;50.814;6.368;2023-04-03T04:41:47;3.97;;;3.53;;
15677;SDS011;7939;50.814;6.368;2023-04-03T04:44:14;3.30;;;3.08;;
15677;SDS011;7939;50.814;6.368;2023-04-03T04:46:41;4.93;;;4.22;;
15677;SDS011;7939;50.814;6.368;2023-04-03T04:49:07;6.15;;;3.47;;
15677;SDS011;7939;50.814;6.368;2023-04-03T04:51:34;4.72;;;4.22;;
15677;SDS011;7939;50.814;6.368;2023-04-03T04:54:00;5.57;;;4.22;;
15677;SDS011;7939;50.814;6.368;2023-04-03T04:56:27;3.90;;;3.50;;
15677;SDS011;7939;50.814;6.368;2023-04-03T04:58:55;5.03;;;3.78;;
15677;SDS011;7939;50.814;6.368;2023-04-03T05:01:22;3.88;;;3.58;;
15677;SDS011;7939;50.814;6.368;2023-04-03T05:03:48;4.95;;;3.90;;
15677;SDS011;7939;50.814;6.368;2023-04-03T05:06:15;4.20;;;3.80;;
15677;SDS011;7939;50.814;6.368;2023-04-03T05:08:42;5.88;;;3.88;;
15677;SDS011;7939;50.814;6.368;2023-04-03T05:11:08;5.45;;;4.15;;
15677;SDS011;7939;50.814;6.368;2023-04-03T05:13:35;4.20;;;3.80;;
15677;SDS011;7939;50.814;6.368;2023-04-03T05:16:03;5.45;;;4.55;;
15677;SDS011;7939;50.814;6.368;2023-04-03T05:18:30;4.25;;;3.88;;
15677;SDS011;7939;50.814;6.368;2023-04-03T05:20:56;4.75;;;4.03;;
15677;SDS011;7939;50.814;6.368;2023-04-03T05:23:24;5.15;;;4.45;;
15677;SDS011;7939;50.814;6.368;2023-04-03T05:25:51;4.18;;;3.75;;
15677;SDS011;7939;50.814;6.368;2023-04-03T05:28:17;7.38;;;4.20;;
15677;SDS011;7939;50.814;6.368;2023-04-03T05:30:44;4.53;;;4.15;;
15677;SDS011;7939;50.814;6.368;2023-04-03T05:33:12;5.78;;;4.20;;
15677;SDS011;7939;50.814;6.368;2023-04-03T05:35:39;4.25;;;3.85;;
15677;SDS011;7939;50.814;6.368;2023-04-03T05:38:06;5.60;;;4.30;;
15677;SDS011;7939;50.814;6.368;2023-04-03T05:40:33;4.18;;;3.85;;
15677;SDS011;7939;50.814;6.368;2023-04-03T05:42:59;5.82;;;4.22;;
15677;SDS011;7939;50.814;6.368;2023-04-03T05:45:26;7.90;;;5.45;;
15677;SDS011;7939;50.814;6.368;2023-04-03T05:47:52;4.90;;;3.85;;
15677;SDS011;7939;50.814;6.368;2023-04-03T05:50:20;4.88;;;4.38;;
15677;SDS011;7939;50.814;6.368;2023-04-03T05:52:48;4.93;;;4.45;;
15677;SDS011;7939;50.814;6.368;2023-04-03T05:55:17;6.20;;;4.43;;
15677;SDS011;7939;50.814;6.368;2023-04-03T05:57:43;4.93;;;4.45;;
15677;SDS011;7939;50.814;6.368;2023-04-03T06:00:11;5.88;;;4.18;;
15677;SDS011;7939;50.814;6.368;2023-04-03T06:02:40;6.43;;;4.15;;
15677;SDS011;7939;50.814;6.368;2023-04-03T06:05:08;8.25;;;4.57;;
15677;SDS011;7939;50.814;6.368;2023-04-03T06:07:38;5.10;;;4.65;;
15677;SDS011;7939;50.814;6.368;2023-04-03T06:10:05;5.18;;;4.38;;
15677;SDS011;7939;50.814;6.368;2023-04-03T06:12:32;5.78;;;5.28;;
15677;SDS011;7939;50.814;6.368;2023-04-03T06:14:59;5.68;;;4.70;;
15677;SDS011;7939;50.814;6.368;2023-04-03T06:17:26;6.20;;;4.85;;
15677;SDS011;7939;50.814;6.368;2023-04-03T06:19:53;5.15;;;4.65;;
15677;SDS011;7939;50.814;6.368;2023-04-03T06:22:20;7.03;;;4.88;;
15677;SDS011;7939;50.814;6.368;2023-04-03T06:24:50;6.80;;;5.22;;
15677;SDS011;7939;50.814;6.368;2023-04-03T06:27:16;8.10;;;4.45;;
15677;SDS011;7939;50.814;6.368;2023-04-03T06:29:43;5.30;;;4.72;;
15677;SDS011;7939;50.814;6.368;2023-04-03T06:32:10;9.40;;;4.47;;
15677;SDS011;7939;50.814;6.368;2023-04-03T06:34:37;5.50;;;4.35;;
15677;SDS011;7939;50.814;6.368;2023-04-03T06:37:03;5.53;;;3.92;;
15677;SDS011;7939;50.814;6.368;2023-04-03T06:39:30;6.90;;;4.65;;
15677;SDS011;7939;50.814;6.368;2023-04-03T06:41:58;7.53;;;4.60;;
15677;SDS011;7939;50.814;6.368;2023-04-03T06:44:25;4.63;;;3.92;;
15677;SDS011;7939;50.814;6.368;2023-04-03T06:46:52;5.93;;;3.95;;
15677;SDS011;7939;50.814;6.368;2023-04-03T06:49:19;7.35;;;4.65;;
15677;SDS011;7939;50.814;6.368;2023-04-03T06:51:46;6.03;;;4.63;;
15677;SDS011;7939;50.814;6.368;2023-04-03T06:54:13;6.57;;;4.38;;
15677;SDS011;7939;50.814;6.368;2023-04-03T06:56:40;5.97;;;4.63;;
15677;SDS011;7939;50.814;6.368;2023-04-03T06:59:09;4.95;;;4.00;;
15677;SDS011;7939;50.814;6.368;2023-04-03T07:01:36;4.53;;;4.10;;
15677;SDS011;7939;50.814;6.368;2023-04-03T07:04:04;6.32;;;4.50;;
15677;SDS011;7939;50.814;6.368;2023-04-03T07:06:31;8.15;;;4.60;;
15677;SDS011;7939;50.814;6.368;2023-04-03T07:08:58;5.22;;;4.25;;
15677;SDS011;7939;50.814;6.368;2023-04-03T07:11:25;4.07;;;3.55;;
15677;SDS011;7939;50.814;6.368;2023-04-03T07:13:52;4.90;;;3.40;;
15677;SDS011;7939;50.814;6.368;2023-04-03T07:16:20;4.80;;;3.60;;
15677;SDS011;7939;50.814;6.368;2023-04-03T07:18:47;4.60;;;4.00;;
15677;SDS011;7939;50.814;6.368;2023-04-03T07:21:13;5.40;;;3.38;;
15677;SDS011;7939;50.814;6.368;2023-04-03T07:23:40;4.35;;;3.58;;
15677;SDS011;7939;50.814;6.368;2023-04-03T07:26:07;4.95;;;3.47;;
15677;SDS011;7939;50.814;6.368;2023-04-03T07:28:34;4.97;;;3.60;;
15677;SDS011;7939;50.814;6.368;2023-04-03T07:31:03;3.63;;;3.28;;
15677;SDS011;7939;50.814;6.368;2023-04-03T07:33:34;4.35;;;3.60;;
15677;SDS011;7939;50.814;6.368;2023-04-03T07:36:02;4.72;;;3.08;;
15677;SDS011;7939;50.814;6.368;2023-04-03T07:38:29;4.45;;;3.45;;
15677;SDS011;7939;50.814;6.368;2023-04-03T07:40:56;5.10;;;3.45;;
15677;SDS011;7939;50.814;6.368;2023-04-03T07:43:23;8.50;;;3.95;;
15677;SDS011;7939;50.814;6.368;2023-04-03T07:45:50;6.38;;;3.60;;
15677;SDS011;7939;50.814;6.368;2023-04-03T07:48:17;5.93;;;3.40;;
15677;SDS011;7939;50.814;6.368;2023-04-03T07:50:45;3.58;;;3.20;;
15677;SDS011;7939;50.814;6.368;2023-04-03T07:53:12;6.43;;;3.60;;
15677;SDS011;7939;50.814;6.368;2023-04-03T07:55:39;7.00;;;3.88;;
15677;SDS011;7939;50.814;6.368;2023-04-03T07:58:09;4.20;;;3.80;;
15677;SDS011;7939;50.814;6.368;2023-04-03T08:00:36;5.13;;;3.50;;
15677;SDS011;7939;50.814;6.368;2023-04-03T08:03:03;8.13;;;3.47;;
15677;SDS011;7939;50.814;6.368;2023-04-03T08:05:30;3.92;;;3.22;;
15677;SDS011;7939;50.814;6.368;2023-04-03T08:07:58;5.40;;;3.80;;
15677;SDS011;7939;50.814;6.368;2023-04-03T08:10:25;4.78;;;3.72;;
15677;SDS011;7939;50.814;6.368;2023-04-03T08:12:51;3.65;;;2.83;;
15677;SDS011;7939;50.814;6.368;2023-04-03T08:15:18;7.68;;;3.78;;
15677;SDS011;7939;50.814;6.368;2023-04-03T08:17:45;4.88;;;3.70;;
15677;SDS011;7939;50.814;6.368;2023-04-03T08:20:12;7.47;;;3.60;;
15677;SDS011;7939;50.814;6.368;2023-04-03T08:22:38;3.85;;;2.72;;
15677;SDS011;7939;50.814;6.368;2023-04-03T08:25:07;7.80;;;3.33;;
15677;SDS011;7939;50.814;6.368;2023-04-03T08:27:34;6.82;;;3.53;;
15677;SDS011;7939;50.814;6.368;2023-04-03T08:30:01;8.05;;;3.40;;
15677;SDS011;7939;50.814;6.368;2023-04-03T08:32:28;3.10;;;2.80;;
15677;SDS011;7939;50.814;6.368;2023-04-03T08:34:54;9.07;;;3.45;;
15677;SDS011;7939;50.814;6.368;2023-04-03T08:37:21;4.82;;;3.30;;
15677;SDS011;7939;50.814;6.368;2023-04-03T08:39:48;5.88;;;3.17;;
15677;SDS011;7939;50.814;6.368;2023-04-03T08:42:18;5.45;;;3.40;;
15677;SDS011;7939;50.814;6.368;2023-04-03T08:45:00;3.72;;;3.15;;
15677;SDS011;7939;50.814;6.368;2023-04-03T08:47:35;4.35;;;3.63;;
15677;SDS011;7939;50.814;6.368;2023-04-03T08:50:05;6.70;;;3.65;;
15677;SDS011;7939;50.814;6.368;2023-04-03T08:52:38;7.13;;;3.67;;
15677;SDS011;7939;50.814;6.368;2023-04-03T08:55:13;5.72;;;3.50;;
15677;SDS011;7939;50.814;6.368;2023-04-03T08:57:47;5.28;;;3.38;;
15677;SDS011;7939;50.814;6.368;2023-04-03T09:00:18;6.80;;;3.70;;
15677;SDS011;7939;50.814;6.368;2023-04-03T09:02:48;6.10;;;3.87;;
15677;SDS011;7939;50.814;6.368;2023-04-03T09:05:16;6.50;;;4.35;;
15677;SDS011;7939;50.814;6.368;2023-04-03T09:07:44;4.18;;;2.90;;
15677;SDS011;7939;50.814;6.368;2023-04-03T09:10:14;8.18;;;3.50;;
15677;SDS011;7939;50.814;6.368;2023-04-03T09:12:46;3.20;;;2.90;;
15677;SDS011;7939;50.814;6.368;2023-04-03T09:15:21;3.53;;;3.20;;
15677;SDS011;7939;50.814;6.368;2023-04-03T09:17:57;6.43;;;3.08;;
15677;SDS011;7939;50.814;6.368;2023-04-03T09:20:31;4.40;;;3.13;;
15677;SDS011;7939;50.814;6.368;2023-04-03T09:23:11;6.13;;;3.10;;
15677;SDS011;7939;50.814;6.368;2023-04-03T09:25:44;5.80;;;2.60;;
15677;SDS011;7939;50.814;6.368;2023-04-03T09:28:13;6.93;;;2.70;;
15677;SDS011;7939;50.814;6.368;2023-04-03T09:30:39;3.28;;;2.72;;
15677;SDS011;7939;50.814;6.368;2023-04-03T09:33:06;3.53;;;2.83;;
15677;SDS011;7939;50.814;6.368;2023-04-03T09:35:33;4.63;;;2.15;;
15677;SDS011;7939;50.814;6.368;2023-04-03T09:38:14;3.65;;;2.38;;
15677;SDS011;7939;50.814;6.368;2023-04-03T09:40:42;4.22;;;2.22;;
15677;SDS011;7939;50.814;6.368;2023-04-03T09:43:20;3.13;;;2.13;;
15677;SDS011;7939;50.814;6.368;2023-04-03T09:45:50;3.42;;;2.17;;
15677;SDS011;7939;50.814;6.368;2023-04-03T09:48:18;2.60;;;2.20;;
15677;SDS011;7939;50.814;6.368;2023-04-03T09:50:54;5.25;;;2.00;;
15677;SDS011;7939;50.814;6.368;2023-04-03T09:53:35;6.15;;;2.30;;
15677;SDS011;7939;50.814;6.368;2023-04-03T09:56:04;3.55;;;2.20;;
15677;SDS011;7939;50.814;6.368;2023-04-03T09:58:48;3.65;;;2.00;;
15677;SDS011;7939;50.814;6.368;2023-04-03T10:01:23;5.18;;;2.10;;
15677;SDS011;7939;50.814;6.368;2023-04-03T10:04:07;4.25;;;2.55;;
15677;SDS011;7939;50.814;6.368;2023-04-03T10:06:36;2.75;;;2.00;;
15677;SDS011;7939;50.814;6.368;2023-04-03T10:09:07;5.93;;;2.50;;
15677;SDS011;7939;50.814;6.368;2023-04-03T10:11:56;3.83;;;1.90;;
15677;SDS011;7939;50.814;6.368;2023-04-03T10:14:26;5.72;;;2.28;;
15677;SDS011;7939;50.814;6.368;2023-04-03T10:16:57;5.18;;;2.17;;
15677;SDS011;7939;50.814;6.368;2023-04-03T10:19:34;4.65;;;2.15;;
15677;SDS011;7939;50.814;6.368;2023-04-03T10:22:08;2.50;;;1.95;;
15677;SDS011;7939;50.814;6.368;2023-04-03T10:24:48;3.60;;;2.00;;
15677;SDS011;7939;50.814;6.368;2023-04-03T10:27:21;4.82;;;2.17;;
15677;SDS011;7939;50.814;6.368;2023-04-03T10:30:01;2.67;;;1.90;;
15677;SDS011;7939;50.814;6.368;2023-04-03T10:32:41;2.95;;;1.88;;
15677;SDS011;7939;50.814;6.368;2023-04-03T10:35:17;5.45;;;2.33;;
15677;SDS011;7939;50.814;6.368;2023-04-03T10:37:55;4.57;;;2.40;;
15677;SDS011;7939;50.814;6.368;2023-04-03T10:40:30;6.57;;;2.03;;
15677;SDS011;7939;50.814;6.368;2023-04-03T10:43:06;5.30;;;1.83;;
15677;SDS011;7939;50.814;6.368;2023-04-03T10:45:45;5.85;;;2.25;;
15677;SDS011;7939;50.814;6.368;2023-04-03T10:48:20;7.03;;;1.88;;
15677;SDS011;7939;50.814;6.368;2023-04-03T10:50:57;2.67;;;1.70;;
15677;SDS011;7939;50.814;6.368;2023-04-03T10:53:34;3.72;;;1.90;;
15677;SDS011;7939;50.814;6.368;2023-04-03T10:56:07;5.28;;;2.00;;
15677;SDS011;7939;50.814;6.368;2023-04-03T10:58:41;4.40;;;2.35;;
15677;SDS011;7939;50.814;6.368;2023-04-03T11:01:13;2.60;;;1.77;;
15677;SDS011;7939;50.814;6.368;2023-04-03T11:03:44;4.40;;;2.13;;
15677;SDS011;7939;50.814;6.368;2023-04-03T11:06:13;4.75;;;1.95;;
15677;SDS011;7939;50.814;6.368;2023-04-03T11:08:43;3.22;;;1.80;;
15677;SDS011;7939;50.814;6.368;2023-04-03T11:11:13;5.93;;;2.22;;
15677;SDS011;7939;50.814;6.368;2023-04-03T11:13:44;2.17;;;1.83;;
15677;SDS011;7939;50.814;6.368;2023-04-03T11:16:17;4.05;;;1.83;;
15677;SDS011;7939;50.814;6.368;2023-04-03T11:18:49;2.97;;;2.00;;
15677;SDS011;7939;50.814;6.368;2023-04-03T11:21:21;3.58;;;1.98;;
15677;SDS011;7939;50.814;6.368;2023-04-03T11:23:54;8.98;;;2.45;;
15677;SDS011;7939;50.814;6.368;2023-04-03T11:26:24;3.33;;;2.00;;
15677;SDS011;7939;50.814;6.368;2023-04-03T11:28:56;1.98;;;1.60;;
15677;SDS011;7939;50.814;6.368;2023-04-03T11:31:29;4.47;;;2.28;;
15677;SDS011;7939;50.814;6.368;2023-04-03T11:34:05;2.13;;;1.70;;
15677;SDS011;7939;50.814;6.368;2023-04-03T11:36:42;3.33;;;1.70;;
15677;SDS011;7939;50.814;6.368;2023-04-03T11:39:16;6.50;;;2.38;;
15677;SDS011;7939;50.814;6.368;2023-04-03T11:41:48;4.82;;;1.90;;
15677;SDS011;7939;50.814;6.368;2023-04-03T11:44:29;4.05;;;2.30;;
15677;SDS011;7939;50.814;6.368;2023-04-03T11:47:01;2.92;;;1.73;;
15677;SDS011;7939;50.814;6.368;2023-04-03T11:58:23;4.32;;;1.35;;
15677;SDS011;7939;50.814;6.368;2023-04-03T12:00:58;3.30;;;1.85;;
15677;SDS011;7939;50.814;6.368;2023-04-03T12:06:48;5.25;;;1.92;;
15677;SDS011;7939;50.814;6.368;2023-04-03T12:09:35;3.85;;;1.50;;
15677;SDS011;7939;50.814;6.368;2023-04-03T12:12:24;2.72;;;1.70;;
15677;SDS011;7939;50.814;6.368;2023-04-03T12:14:55;3.13;;;1.83;;
15677;SDS011;7939;50.814;6.368;2023-04-03T12:17:37;4.93;;;2.03;;
15677;SDS011;7939;50.814;6.368;2023-04-03T12:23:21;3.00;;;1.92;;
15677;SDS011;7939;50.814;6.368;2023-04-03T12:25:51;3.33;;;1.65;;
15677;SDS011;7939;50.814;6.368;2023-04-03T12:28:18;3.40;;;1.73;;
15677;SDS011;7939;50.814;6.368;2023-04-03T12:30:44;1.70;;;1.60;;
15677;SDS011;7939;50.814;6.368;2023-04-03T12:33:20;2.70;;;1.80;;
15677;SDS011;7939;50.814;6.368;2023-04-03T12:35:57;3.00;;;1.48;;
15677;SDS011;7939;50.814;6.368;2023-04-03T12:38:57;3.40;;;2.00;;
15677;SDS011;7939;50.814;6.368;2023-04-03T12:41:37;2.33;;;1.52;;
15677;SDS011;7939;50.814;6.368;2023-04-03T12:47:19;2.45;;;1.65;;
15677;SDS011;7939;50.814;6.368;2023-04-03T12:49:49;2.35;;;1.60;;
15677;SDS011;7939;50.814;6.368;2023-04-03T12:52:17;2.47;;;1.65;;
15677;SDS011;7939;50.814;6.368;2023-04-03T12:54:50;2.35;;;1.90;;
15677;SDS011;7939;50.814;6.368;2023-04-03T12:57:18;1.95;;;1.45;;
15677;SDS011;7939;50.814;6.368;2023-04-03T12:59:46;1.60;;;1.50;;
15677;SDS011;7939;50.814;6.368;2023-04-03T13:02:17;2.00;;;1.40;;
15677;SDS011;7939;50.814;6.368;2023-04-03T13:04:48;2.45;;;1.70;;
15677;SDS011;7939;50.814;6.368;2023-04-03T13:07:19;2.80;;;1.40;;
15677;SDS011;7939;50.814;6.368;2023-04-03T13:09:56;2.15;;;1.40;;
15677;SDS011;7939;50.814;6.368;2023-04-03T13:12:26;2.35;;;1.67;;
15677;SDS011;7939;50.814;6.368;2023-04-03T13:14:55;3.53;;;1.90;;
15677;SDS011;7939;50.814;6.368;2023-04-03T13:17:23;2.42;;;1.60;;
15677;SDS011;7939;50.814;6.368;2023-04-03T13:19:50;5.88;;;1.80;;
15677;SDS011;7939;50.814;6.368;2023-04-03T13:22:27;2.20;;;1.40;;
15677;SDS011;7939;50.814;6.368;2023-04-03T13:24:58;1.63;;;1.42;;
15677;SDS011;7939;50.814;6.368;2023-04-03T13:27:28;3.67;;;1.90;;
15677;SDS011;7939;50.814;6.368;2023-04-03T13:29:57;2.42;;;1.38;;
15677;SDS011;7939;50.814;6.368;2023-04-03T13:32:27;2.03;;;1.80;;
15677;SDS011;7939;50.814;6.368;2023-04-03T13:34:55;3.05;;;1.75;;
15677;SDS011;7939;50.814;6.368;2023-04-03T13:37:23;2.85;;;1.25;;
15677;SDS011;7939;50.814;6.368;2023-04-03T13:40:01;2.25;;;1.65;;
15677;SDS011;7939;50.814;6.368;2023-04-03T13:42:37;2.70;;;1.52;;
15677;SDS011;7939;50.814;6.368;2023-04-03T13:45:09;3.33;;;1.63;;
15677;SDS011;7939;50.814;6.368;2023-04-03T13:47:44;1.92;;;1.45;;
15677;SDS011;7939;50.814;6.368;2023-04-03T13:50:13;3.08;;;1.35;;
15677;SDS011;7939;50.814;6.368;2023-04-03T13:52:43;2.42;;;1.38;;
15677;SDS011;7939;50.814;6.368;2023-04-03T13:55:17;1.92;;;1.35;;
15677;SDS011;7939;50.814;6.368;2023-04-03T13:57:49;2.85;;;1.60;;
15677;SDS011;7939;50.814;6.368;2023-04-03T14:00:26;1.60;;;1.13;;
15677;SDS011;7939;50.814;6.368;2023-04-03T14:02:56;1.88;;;1.40;;
15677;SDS011;7939;50.814;6.368;2023-04-03T14:05:23;1.38;;;1.27;;
15677;SDS011;7939;50.814;6.368;2023-04-03T14:07:52;2.10;;;1.50;;
15677;SDS011;7939;50.814;6.368;2023-04-03T14:10:23;2.25;;;1.50;;
15677;SDS011;7939;50.814;6.368;2023-04-03T14:12:49;1.33;;;1.23;;
15677;SDS011;7939;50.814;6.368;2023-04-03T14:15:18;1.67;;;1.10;;
15677;SDS011;7939;50.814;6.368;2023-04-03T14:17:48;2.28;;;1.55;;
15677;SDS011;7939;50.814;6.368;2023-04-03T14:20:17;2.58;;;1.63;;
15677;SDS011;7939;50.814;6.368;2023-04-03T14:22:46;3.10;;;1.50;;
15677;SDS011;7939;50.814;6.368;2023-04-03T14:25:14;2.33;;;1.60;;
15677;SDS011;7939;50.814;6.368;2023-04-03T14:27:43;2.28;;;1.45;;
15677;SDS011;7939;50.814;6.368;2023-04-03T14:30:14;3.15;;;1.38;;
15677;SDS011;7939;50.814;6.368;2023-04-03T14:32:42;1.75;;;1.30;;
15677;SDS011;7939;50.814;6.368;2023-04-03T14:35:10;1.60;;;1.50;;
15677;SDS011;7939;50.814;6.368;2023-04-03T14:37:36;1.33;;;1.08;;
15677;SDS011;7939;50.814;6.368;2023-04-03T14:40:04;4.03;;;2.85;;
15677;SDS011;7939;50.814;6.368;2023-04-03T14:42:33;2.80;;;1.52;;
15677;SDS011;7939;50.814;6.368;2023-04-03T14:45:04;3.45;;;1.60;;
15677;SDS011;7939;50.814;6.368;2023-04-03T14:47:32;1.75;;;1.42;;
15677;SDS011;7939;50.814;6.368;2023-04-03T14:50:03;2.10;;;1.60;;
15677;SDS011;7939;50.814;6.368;2023-04-03T14:52:34;2.70;;;1.65;;
15677;SDS011;7939;50.814;6.368;2023-04-03T14:55:02;2.65;;;1.23;;
15677;SDS011;7939;50.814;6.368;2023-04-03T14:57:31;2.75;;;1.30;;
15677;SDS011;7939;50.814;6.368;2023-04-03T15:00:00;2.20;;;1.60;;
15677;SDS011;7939;50.814;6.368;2023-04-03T15:02:30;3.10;;;1.65;;
15677;SDS011;7939;50.814;6.368;2023-04-03T15:04:58;2.25;;;1.80;;
15677;SDS011;7939;50.814;6.368;2023-04-03T15:07:28;4.68;;;1.52;;
15677;SDS011;7939;50.814;6.368;2023-04-03T15:09:56;1.40;;;1.27;;
15677;SDS011;7939;50.814;6.368;2023-04-03T15:12:23;2.60;;;2.38;;
15677;SDS011;7939;50.814;6.368;2023-04-03T15:14:49;2.00;;;1.42;;
15677;SDS011;7939;50.814;6.368;2023-04-03T15:17:16;3.45;;;1.75;;
15677;SDS011;7939;50.814;6.368;2023-04-03T15:19:47;5.68;;;1.60;;
15677;SDS011;7939;50.814;6.368;2023-04-03T15:22:14;2.72;;;1.40;;
15677;SDS011;7939;50.814;6.368;2023-04-03T15:24:42;3.15;;;2.28;;
15677;SDS011;7939;50.814;6.368;2023-04-03T15:27:09;2.20;;;1.30;;
15677;SDS011;7939;50.814;6.368;2023-04-03T15:29:37;1.50;;;1.40;;
15677;SDS011;7939;50.814;6.368;2023-04-03T15:32:04;3.00;;;1.55;;
15677;SDS011;7939;50.814;6.368;2023-04-03T15:34:31;2.33;;;1.40;;